sensor_id;sensor_type;location;lat;lon;timestamp;P1;durP1;ratioP1;P2;durP2;ratioP2
54197;SDS011;40105;52.366;17.000;2023-04-25T00:01:37;6.28;;;2.72;;
54197;SDS011;40105;52.366;17.000;2023-04-25T00:04:03;4.72;;;2.65;;
54197;SDS011;40105;52.366;17.000;2023-04-25T00:06:28;7.70;;;2.13;;
54197;SDS011;40105;52.366;17.000;2023-04-25T00:08:54;6.22;;;2.40;;
54197;SDS011;40105;52.366;17.000;2023-04-25T00:11:20;6.32;;;2.47;;
54197;SDS011;40105;52.366;17.000;2023-04-25T00:13:45;4.03;;;1.90;;
54197;SDS011;40105;52.366;17.000;2023-04-25T00:16:11;4.70;;;1.95;;
54197;SDS011;40105;52.366;17.000;2023-04-25T00:18:38;4.05;;;2.55;;
54197;SDS011;40105;52.366;17.000;2023-04-25T00:21:03;5.63;;;2.53;;
54197;SDS011;40105;52.366;17.000;2023-04-25T00:23:31;4.43;;;2.28;;
54197;SDS011;40105;52.366;17.000;2023-04-25T00:25:56;4.65;;;2.35;;
54197;SDS011;40105;52.366;17.000;2023-04-25T00:28:21;12.55;;;2.75;;
54197;SDS011;40105;52.366;17.000;2023-04-25T00:30:46;6.40;;;2.23;;
54197;SDS011;40105;52.366;17.000;2023-04-25T00:33:11;5.20;;;2.17;;
54197;SDS011;40105;52.366;17.000;2023-04-25T00:35:37;3.03;;;1.57;;
54197;SDS011;40105;52.366;17.000;2023-04-25T00:38:03;4.88;;;2.08;;
54197;SDS011;40105;52.366;17.000;2023-04-25T00:40:28;6.13;;;1.70;;
54197;SDS011;40105;52.366;17.000;2023-04-25T00:42:53;3.73;;;1.83;;
54197;SDS011;40105;52.366;17.000;2023-04-25T00:45:19;5.03;;;2.30;;
54197;SDS011;40105;52.366;17.000;2023-04-25T00:47:44;2.45;;;1.27;;
54197;SDS011;40105;52.366;17.000;2023-04-25T00:50:10;3.40;;;1.70;;
54197;SDS011;40105;52.366;17.000;2023-04-25T00:52:38;5.30;;;2.40;;
54197;SDS011;40105;52.366;17.000;2023-04-25T00:55:04;6.13;;;2.47;;
54197;SDS011;40105;52.366;17.000;2023-04-25T00:57:30;8.23;;;2.70;;
54197;SDS011;40105;52.366;17.000;2023-04-25T00:59:55;7.37;;;3.60;;
54197;SDS011;40105;52.366;17.000;2023-04-25T01:02:20;3.47;;;1.80;;
54197;SDS011;40105;52.366;17.000;2023-04-25T01:04:47;4.47;;;2.08;;
54197;SDS011;40105;52.366;17.000;2023-04-25T01:07:12;2.83;;;1.63;;
54197;SDS011;40105;52.366;17.000;2023-04-25T01:09:38;2.15;;;1.55;;
54197;SDS011;40105;52.366;17.000;2023-04-25T01:12:03;3.07;;;1.90;;
54197;SDS011;40105;52.366;17.000;2023-04-25T01:14:28;6.00;;;2.17;;
54197;SDS011;40105;52.366;17.000;2023-04-25T01:16:54;4.75;;;1.85;;
54197;SDS011;40105;52.366;17.000;2023-04-25T01:19:20;3.42;;;2.10;;
54197;SDS011;40105;52.366;17.000;2023-04-25T01:21:45;4.70;;;2.30;;
54197;SDS011;40105;52.366;17.000;2023-04-25T01:24:11;4.65;;;2.40;;
54197;SDS011;40105;52.366;17.000;2023-04-25T01:26:36;7.55;;;2.80;;
54197;SDS011;40105;52.366;17.000;2023-04-25T01:29:03;4.60;;;2.80;;
54197;SDS011;40105;52.366;17.000;2023-04-25T01:31:28;6.75;;;2.80;;
54197;SDS011;40105;52.366;17.000;2023-04-25T01:33:54;9.25;;;3.08;;
54197;SDS011;40105;52.366;17.000;2023-04-25T01:36:19;12.37;;;3.13;;
54197;SDS011;40105;52.366;17.000;2023-04-25T01:38:45;4.53;;;2.90;;
54197;SDS011;40105;52.366;17.000;2023-04-25T01:41:12;6.03;;;3.22;;
54197;SDS011;40105;52.366;17.000;2023-04-25T01:43:37;4.38;;;2.83;;
54197;SDS011;40105;52.366;17.000;2023-04-25T01:46:03;5.67;;;2.70;;
54197;SDS011;40105;52.366;17.000;2023-04-25T01:48:28;10.82;;;5.55;;
54197;SDS011;40105;52.366;17.000;2023-04-25T01:50:53;3.67;;;2.33;;
54197;SDS011;40105;52.366;17.000;2023-04-25T01:53:18;5.07;;;2.43;;
54197;SDS011;40105;52.366;17.000;2023-04-25T01:55:44;4.70;;;2.13;;
54197;SDS011;40105;52.366;17.000;2023-04-25T01:58:09;7.53;;;2.77;;
54197;SDS011;40105;52.366;17.000;2023-04-25T02:00:35;5.82;;;2.47;;
54197;SDS011;40105;52.366;17.000;2023-04-25T02:03:02;5.00;;;2.35;;
54197;SDS011;40105;52.366;17.000;2023-04-25T02:05:28;5.57;;;2.47;;
54197;SDS011;40105;52.366;17.000;2023-04-25T02:07:53;5.00;;;2.30;;
54197;SDS011;40105;52.366;17.000;2023-04-25T02:10:19;3.60;;;2.20;;
54197;SDS011;40105;52.366;17.000;2023-04-25T02:12:44;7.78;;;1.95;;
54197;SDS011;40105;52.366;17.000;2023-04-25T02:15:09;5.17;;;2.17;;
54197;SDS011;40105;52.366;17.000;2023-04-25T02:17:35;5.85;;;2.75;;
54197;SDS011;40105;52.366;17.000;2023-04-25T02:20:00;6.30;;;3.23;;
54197;SDS011;40105;52.366;17.000;2023-04-25T02:22:25;4.70;;;2.47;;
54197;SDS011;40105;52.366;17.000;2023-04-25T02:24:52;4.78;;;2.42;;
54197;SDS011;40105;52.366;17.000;2023-04-25T02:27:17;5.80;;;2.65;;
54197;SDS011;40105;52.366;17.000;2023-04-25T02:29:43;5.50;;;2.60;;
54197;SDS011;40105;52.366;17.000;2023-04-25T02:32:08;3.40;;;1.90;;
54197;SDS011;40105;52.366;17.000;2023-04-25T02:34:33;12.23;;;2.63;;
54197;SDS011;40105;52.366;17.000;2023-04-25T02:36:58;6.13;;;2.30;;
54197;SDS011;40105;52.366;17.000;2023-04-25T02:39:23;4.30;;;2.40;;
54197;SDS011;40105;52.366;17.000;2023-04-25T02:41:50;4.00;;;2.83;;
54197;SDS011;40105;52.366;17.000;2023-04-25T02:44:15;3.35;;;2.25;;
54197;SDS011;40105;52.366;17.000;2023-04-25T02:46:40;7.70;;;2.17;;
54197;SDS011;40105;52.366;17.000;2023-04-25T02:49:06;9.50;;;3.60;;
54197;SDS011;40105;52.366;17.000;2023-04-25T02:51:31;3.70;;;2.05;;
54197;SDS011;40105;52.366;17.000;2023-04-25T02:53:57;6.00;;;2.05;;
54197;SDS011;40105;52.366;17.000;2023-04-25T02:56:22;5.23;;;2.23;;
54197;SDS011;40105;52.366;17.000;2023-04-25T02:58:47;8.13;;;1.97;;
54197;SDS011;40105;52.366;17.000;2023-04-25T03:01:13;5.55;;;2.15;;
54197;SDS011;40105;52.366;17.000;2023-04-25T03:03:38;7.40;;;3.07;;
54197;SDS011;40105;52.366;17.000;2023-04-25T03:06:03;5.38;;;2.67;;
54197;SDS011;40105;52.366;17.000;2023-04-25T03:08:28;4.93;;;2.70;;
54197;SDS011;40105;52.366;17.000;2023-04-25T03:10:57;6.10;;;2.35;;
54197;SDS011;40105;52.366;17.000;2023-04-25T03:13:23;11.63;;;2.25;;
54197;SDS011;40105;52.366;17.000;2023-04-25T03:15:48;4.63;;;2.63;;
54197;SDS011;40105;52.366;17.000;2023-04-25T03:18:13;4.93;;;3.03;;
54197;SDS011;40105;52.366;17.000;2023-04-25T03:20:39;7.30;;;2.67;;
54197;SDS011;40105;52.366;17.000;2023-04-25T03:23:06;5.70;;;3.05;;
54197;SDS011;40105;52.366;17.000;2023-04-25T03:25:31;6.03;;;2.53;;
54197;SDS011;40105;52.366;17.000;2023-04-25T03:27:56;5.90;;;3.07;;
54197;SDS011;40105;52.366;17.000;2023-04-25T03:30:22;7.33;;;3.10;;
54197;SDS011;40105;52.366;17.000;2023-04-25T03:32:47;8.53;;;2.23;;
54197;SDS011;40105;52.366;17.000;2023-04-25T03:35:12;6.03;;;3.10;;
54197;SDS011;40105;52.366;17.000;2023-04-25T03:37:37;14.30;;;3.27;;
54197;SDS011;40105;52.366;17.000;2023-04-25T03:40:02;8.07;;;2.90;;
54197;SDS011;40105;52.366;17.000;2023-04-25T03:42:27;6.25;;;2.95;;
54197;SDS011;40105;52.366;17.000;2023-04-25T03:44:53;7.13;;;3.50;;
54197;SDS011;40105;52.366;17.000;2023-04-25T03:47:18;17.93;;;4.43;;
54197;SDS011;40105;52.366;17.000;2023-04-25T03:49:43;16.67;;;3.10;;
54197;SDS011;40105;52.366;17.000;2023-04-25T03:52:09;15.07;;;3.70;;
54197;SDS011;40105;52.366;17.000;2023-04-25T03:54:34;7.00;;;3.33;;
54197;SDS011;40105;52.366;17.000;2023-04-25T03:56:59;8.20;;;3.73;;
54197;SDS011;40105;52.366;17.000;2023-04-25T03:59:25;7.60;;;3.90;;
54197;SDS011;40105;52.366;17.000;2023-04-25T04:01:51;12.05;;;3.95;;
54197;SDS011;40105;52.366;17.000;2023-04-25T04:04:16;5.93;;;3.70;;
54197;SDS011;40105;52.366;17.000;2023-04-25T04:06:41;6.70;;;4.23;;
54197;SDS011;40105;52.366;17.000;2023-04-25T04:09:07;10.27;;;3.97;;
54197;SDS011;40105;52.366;17.000;2023-04-25T04:11:35;10.27;;;4.28;;
54197;SDS011;40105;52.366;17.000;2023-04-25T04:14:03;6.13;;;3.72;;
54197;SDS011;40105;52.366;17.000;2023-04-25T04:16:28;9.93;;;3.90;;
54197;SDS011;40105;52.366;17.000;2023-04-25T04:18:53;11.73;;;4.53;;
54197;SDS011;40105;52.366;17.000;2023-04-25T04:21:18;9.40;;;4.67;;
54197;SDS011;40105;52.366;17.000;2023-04-25T04:23:43;7.77;;;4.47;;
54197;SDS011;40105;52.366;17.000;2023-04-25T04:26:09;11.60;;;4.30;;
54197;SDS011;40105;52.366;17.000;2023-04-25T04:28:34;7.10;;;4.25;;
54197;SDS011;40105;52.366;17.000;2023-04-25T04:31:00;10.73;;;5.18;;
54197;SDS011;40105;52.366;17.000;2023-04-25T04:33:27;8.25;;;4.35;;
54197;SDS011;40105;52.366;17.000;2023-04-25T04:35:53;8.00;;;4.57;;
54197;SDS011;40105;52.366;17.000;2023-04-25T04:38:20;9.13;;;4.50;;
54197;SDS011;40105;52.366;17.000;2023-04-25T04:40:46;10.23;;;4.47;;
54197;SDS011;40105;52.366;17.000;2023-04-25T04:43:12;15.35;;;6.35;;
54197;SDS011;40105;52.366;17.000;2023-04-25T04:45:38;11.20;;;5.57;;
54197;SDS011;40105;52.366;17.000;2023-04-25T04:48:05;14.35;;;5.60;;
54197;SDS011;40105;52.366;17.000;2023-04-25T04:50:30;11.35;;;5.78;;
54197;SDS011;40105;52.366;17.000;2023-04-25T04:52:57;15.57;;;5.65;;
54197;SDS011;40105;52.366;17.000;2023-04-25T04:55:22;7.87;;;4.63;;
54197;SDS011;40105;52.366;17.000;2023-04-25T04:57:47;10.30;;;4.17;;
54197;SDS011;40105;52.366;17.000;2023-04-25T05:00:13;13.43;;;5.30;;
54197;SDS011;40105;52.366;17.000;2023-04-25T05:02:38;9.13;;;4.93;;
54197;SDS011;40105;52.366;17.000;2023-04-25T05:05:04;10.73;;;5.57;;
54197;SDS011;40105;52.366;17.000;2023-04-25T05:07:30;9.52;;;5.70;;
54197;SDS011;40105;52.366;17.000;2023-04-25T05:09:55;9.70;;;4.73;;
54197;SDS011;40105;52.366;17.000;2023-04-25T05:12:20;6.90;;;3.80;;
54197;SDS011;40105;52.366;17.000;2023-04-25T05:14:45;11.77;;;6.17;;
54197;SDS011;40105;52.366;17.000;2023-04-25T05:17:10;7.37;;;4.43;;
54197;SDS011;40105;52.366;17.000;2023-04-25T05:19:36;8.90;;;4.57;;
54197;SDS011;40105;52.366;17.000;2023-04-25T05:22:02;9.20;;;4.30;;
54197;SDS011;40105;52.366;17.000;2023-04-25T05:24:27;11.68;;;4.75;;
54197;SDS011;40105;52.366;17.000;2023-04-25T05:26:52;11.87;;;4.30;;
54197;SDS011;40105;52.366;17.000;2023-04-25T05:29:18;9.95;;;4.45;;
54197;SDS011;40105;52.366;17.000;2023-04-25T05:31:44;10.30;;;5.30;;
54197;SDS011;40105;52.366;17.000;2023-04-25T05:34:10;8.02;;;3.63;;
54197;SDS011;40105;52.366;17.000;2023-04-25T05:36:35;12.03;;;4.63;;
54197;SDS011;40105;52.366;17.000;2023-04-25T05:39:00;11.43;;;4.53;;
54197;SDS011;40105;52.366;17.000;2023-04-25T05:41:25;12.07;;;3.53;;
54197;SDS011;40105;52.366;17.000;2023-04-25T05:43:50;12.13;;;3.93;;
54197;SDS011;40105;52.366;17.000;2023-04-25T05:46:15;8.33;;;4.17;;
54197;SDS011;40105;52.366;17.000;2023-04-25T05:48:45;8.10;;;3.67;;
54197;SDS011;40105;52.366;17.000;2023-04-25T05:51:10;7.60;;;3.80;;
54197;SDS011;40105;52.366;17.000;2023-04-25T05:53:35;15.63;;;3.83;;
54197;SDS011;40105;52.366;17.000;2023-04-25T05:56:00;15.47;;;4.67;;
54197;SDS011;40105;52.366;17.000;2023-04-25T05:58:26;15.02;;;3.33;;
54197;SDS011;40105;52.366;17.000;2023-04-25T06:00:51;9.80;;;4.57;;
54197;SDS011;40105;52.366;17.000;2023-04-25T06:03:16;10.93;;;4.28;;
54197;SDS011;40105;52.366;17.000;2023-04-25T06:05:42;10.57;;;3.78;;
54197;SDS011;40105;52.366;17.000;2023-04-25T06:08:07;4.68;;;2.88;;
54197;SDS011;40105;52.366;17.000;2023-04-25T06:10:32;12.53;;;3.57;;
54197;SDS011;40105;52.366;17.000;2023-04-25T06:12:57;11.17;;;2.70;;
54197;SDS011;40105;52.366;17.000;2023-04-25T06:15:23;6.43;;;2.72;;
54197;SDS011;40105;52.366;17.000;2023-04-25T06:17:48;11.60;;;3.93;;
54197;SDS011;40105;52.366;17.000;2023-04-25T06:20:13;15.27;;;3.10;;
54197;SDS011;40105;52.366;17.000;2023-04-25T06:22:39;10.63;;;3.87;;
54197;SDS011;40105;52.366;17.000;2023-04-25T06:25:04;16.47;;;3.77;;
54197;SDS011;40105;52.366;17.000;2023-04-25T06:27:29;7.75;;;3.17;;
54197;SDS011;40105;52.366;17.000;2023-04-25T06:29:54;7.03;;;3.55;;
54197;SDS011;40105;52.366;17.000;2023-04-25T06:32:20;12.23;;;5.40;;
54197;SDS011;40105;52.366;17.000;2023-04-25T06:34:45;6.73;;;3.13;;
54197;SDS011;40105;52.366;17.000;2023-04-25T06:37:10;15.68;;;3.83;;
54197;SDS011;40105;52.366;17.000;2023-04-25T06:39:35;9.20;;;3.63;;
54197;SDS011;40105;52.366;17.000;2023-04-25T06:42:00;15.20;;;3.50;;
54197;SDS011;40105;52.366;17.000;2023-04-25T06:44:26;16.05;;;3.83;;
54197;SDS011;40105;52.366;17.000;2023-04-25T06:46:51;9.90;;;3.50;;
54197;SDS011;40105;52.366;17.000;2023-04-25T06:49:16;10.97;;;3.00;;
54197;SDS011;40105;52.366;17.000;2023-04-25T06:51:41;16.00;;;3.80;;
54197;SDS011;40105;52.366;17.000;2023-04-25T06:54:06;6.13;;;3.00;;
54197;SDS011;40105;52.366;17.000;2023-04-25T06:56:32;4.68;;;3.05;;
54197;SDS011;40105;52.366;17.000;2023-04-25T06:58:57;9.20;;;3.23;;
54197;SDS011;40105;52.366;17.000;2023-04-25T07:01:22;10.07;;;3.93;;
54197;SDS011;40105;52.366;17.000;2023-04-25T07:03:47;20.77;;;4.77;;
54197;SDS011;40105;52.366;17.000;2023-04-25T07:06:12;6.53;;;3.00;;
54197;SDS011;40105;52.366;17.000;2023-04-25T07:08:37;10.57;;;3.40;;
54197;SDS011;40105;52.366;17.000;2023-04-25T07:11:03;9.13;;;3.40;;
54197;SDS011;40105;52.366;17.000;2023-04-25T07:13:28;13.03;;;3.13;;
54197;SDS011;40105;52.366;17.000;2023-04-25T07:15:53;16.25;;;3.55;;
54197;SDS011;40105;52.366;17.000;2023-04-25T07:18:18;6.40;;;2.93;;
54197;SDS011;40105;52.366;17.000;2023-04-25T07:20:43;9.88;;;3.20;;
54197;SDS011;40105;52.366;17.000;2023-04-25T07:23:08;9.77;;;2.77;;
54197;SDS011;40105;52.366;17.000;2023-04-25T07:25:34;8.10;;;2.97;;
54197;SDS011;40105;52.366;17.000;2023-04-25T07:28:00;14.85;;;3.35;;
54197;SDS011;40105;52.366;17.000;2023-04-25T07:30:25;7.00;;;3.37;;
54197;SDS011;40105;52.366;17.000;2023-04-25T07:32:50;16.38;;;3.42;;
54197;SDS011;40105;52.366;17.000;2023-04-25T07:35:16;9.53;;;3.83;;
54197;SDS011;40105;52.366;17.000;2023-04-25T07:37:41;5.97;;;2.83;;
54197;SDS011;40105;52.366;17.000;2023-04-25T07:40:06;14.05;;;3.42;;
54197;SDS011;40105;52.366;17.000;2023-04-25T07:42:32;6.85;;;3.22;;
54197;SDS011;40105;52.366;17.000;2023-04-25T07:44:58;5.80;;;3.10;;
54197;SDS011;40105;52.366;17.000;2023-04-25T07:47:23;5.93;;;2.87;;
54197;SDS011;40105;52.366;17.000;2023-04-25T07:49:48;8.73;;;3.23;;
54197;SDS011;40105;52.366;17.000;2023-04-25T07:52:13;11.82;;;4.45;;
54197;SDS011;40105;52.366;17.000;2023-04-25T07:54:38;11.30;;;4.13;;
54197;SDS011;40105;52.366;17.000;2023-04-25T07:57:04;14.70;;;3.63;;
54197;SDS011;40105;52.366;17.000;2023-04-25T07:59:31;7.72;;;3.45;;
54197;SDS011;40105;52.366;17.000;2023-04-25T08:01:56;12.63;;;4.20;;
54197;SDS011;40105;52.366;17.000;2023-04-25T08:04:22;7.40;;;3.33;;
54197;SDS011;40105;52.366;17.000;2023-04-25T08:06:47;7.85;;;3.67;;
54197;SDS011;40105;52.366;17.000;2023-04-25T08:09:13;6.90;;;3.08;;
54197;SDS011;40105;52.366;17.000;2023-04-25T08:11:38;12.67;;;4.00;;
54197;SDS011;40105;52.366;17.000;2023-04-25T08:14:03;6.73;;;3.30;;
54197;SDS011;40105;52.366;17.000;2023-04-25T08:16:28;11.37;;;4.07;;
54197;SDS011;40105;52.366;17.000;2023-04-25T08:18:54;7.88;;;4.05;;
54197;SDS011;40105;52.366;17.000;2023-04-25T08:21:19;8.50;;;3.87;;
54197;SDS011;40105;52.366;17.000;2023-04-25T08:23:45;8.57;;;3.50;;
54197;SDS011;40105;52.366;17.000;2023-04-25T08:26:10;8.65;;;3.28;;
54197;SDS011;40105;52.366;17.000;2023-04-25T08:28:35;15.30;;;3.27;;
54197;SDS011;40105;52.366;17.000;2023-04-25T08:31:00;9.97;;;4.00;;
54197;SDS011;40105;52.366;17.000;2023-04-25T08:33:26;8.63;;;3.50;;
54197;SDS011;40105;52.366;17.000;2023-04-25T08:35:51;17.73;;;3.57;;
54197;SDS011;40105;52.366;17.000;2023-04-25T08:38:17;7.27;;;3.57;;
54197;SDS011;40105;52.366;17.000;2023-04-25T08:40:42;7.45;;;3.38;;
54197;SDS011;40105;52.366;17.000;2023-04-25T08:43:08;4.90;;;2.67;;
54197;SDS011;40105;52.366;17.000;2023-04-25T08:45:38;9.10;;;2.95;;
54197;SDS011;40105;52.366;17.000;2023-04-25T08:48:03;13.05;;;3.28;;
54197;SDS011;40105;52.366;17.000;2023-04-25T08:50:29;5.90;;;3.35;;
54197;SDS011;40105;52.366;17.000;2023-04-25T08:52:55;11.35;;;4.22;;
54197;SDS011;40105;52.366;17.000;2023-04-25T08:55:26;15.32;;;3.85;;
54197;SDS011;40105;52.366;17.000;2023-04-25T08:57:52;10.57;;;3.10;;
54197;SDS011;40105;52.366;17.000;2023-04-25T09:00:19;9.05;;;3.30;;
54197;SDS011;40105;52.366;17.000;2023-04-25T09:02:44;6.60;;;3.20;;
54197;SDS011;40105;52.366;17.000;2023-04-25T09:05:11;10.93;;;2.88;;
54197;SDS011;40105;52.366;17.000;2023-04-25T09:07:37;6.47;;;3.05;;
54197;SDS011;40105;52.366;17.000;2023-04-25T09:10:02;10.67;;;3.97;;
54197;SDS011;40105;52.366;17.000;2023-04-25T09:12:28;10.85;;;3.58;;
54197;SDS011;40105;52.366;17.000;2023-04-25T09:15:01;9.05;;;3.28;;
54197;SDS011;40105;52.366;17.000;2023-04-25T09:17:26;9.73;;;2.75;;
54197;SDS011;40105;52.366;17.000;2023-04-25T09:19:53;5.70;;;3.03;;
54197;SDS011;40105;52.366;17.000;2023-04-25T09:22:18;8.60;;;3.87;;
54197;SDS011;40105;52.366;17.000;2023-04-25T09:24:47;15.77;;;3.65;;
54197;SDS011;40105;52.366;17.000;2023-04-25T09:27:17;8.63;;;3.38;;
54197;SDS011;40105;52.366;17.000;2023-04-25T09:29:43;9.20;;;3.47;;
54197;SDS011;40105;52.366;17.000;2023-04-25T09:34:40;17.02;;;3.63;;
54197;SDS011;40105;52.366;17.000;2023-04-25T09:37:07;19.55;;;2.78;;
54197;SDS011;40105;52.366;17.000;2023-04-25T09:39:32;12.32;;;2.33;;
54197;SDS011;40105;52.366;17.000;2023-04-25T09:41:57;9.15;;;2.70;;
54197;SDS011;40105;52.366;17.000;2023-04-25T09:44:23;12.60;;;2.28;;
54197;SDS011;40105;52.366;17.000;2023-04-25T09:46:49;13.63;;;2.85;;
54197;SDS011;40105;52.366;17.000;2023-04-25T09:49:19;13.13;;;3.15;;
54197;SDS011;40105;52.366;17.000;2023-04-25T09:51:53;5.07;;;2.92;;
54197;SDS011;40105;52.366;17.000;2023-04-25T09:54:18;13.10;;;2.88;;
54197;SDS011;40105;52.366;17.000;2023-04-25T09:56:43;12.27;;;2.97;;
54197;SDS011;40105;52.366;17.000;2023-04-25T09:59:12;6.90;;;2.75;;
54197;SDS011;40105;52.366;17.000;2023-04-25T10:01:37;9.65;;;2.95;;
54197;SDS011;40105;52.366;17.000;2023-04-25T10:04:04;4.32;;;2.70;;
54197;SDS011;40105;52.366;17.000;2023-04-25T10:06:31;7.25;;;2.65;;
54197;SDS011;40105;52.366;17.000;2023-04-25T10:08:59;6.50;;;2.40;;
54197;SDS011;40105;52.366;17.000;2023-04-25T10:11:24;8.68;;;3.08;;
54197;SDS011;40105;52.366;17.000;2023-04-25T10:13:51;7.10;;;3.05;;
54197;SDS011;40105;52.366;17.000;2023-04-25T10:16:16;5.07;;;3.20;;
54197;SDS011;40105;52.366;17.000;2023-04-25T10:18:41;4.43;;;2.53;;
54197;SDS011;40105;52.366;17.000;2023-04-25T10:21:06;5.20;;;2.60;;
54197;SDS011;40105;52.366;17.000;2023-04-25T10:23:32;14.35;;;3.22;;
54197;SDS011;40105;52.366;17.000;2023-04-25T10:25:59;5.20;;;2.80;;
54197;SDS011;40105;52.366;17.000;2023-04-25T10:28:25;4.55;;;2.38;;
54197;SDS011;40105;52.366;17.000;2023-04-25T10:31:08;24.13;;;2.53;;
54197;SDS011;40105;52.366;17.000;2023-04-25T10:33:36;6.57;;;2.47;;
54197;SDS011;40105;52.366;17.000;2023-04-25T10:36:09;5.60;;;2.85;;
54197;SDS011;40105;52.366;17.000;2023-04-25T10:38:34;9.02;;;2.60;;
54197;SDS011;40105;52.366;17.000;2023-04-25T10:41:02;4.60;;;2.50;;
54197;SDS011;40105;52.366;17.000;2023-04-25T10:45:56;7.88;;;2.55;;
54197;SDS011;40105;52.366;17.000;2023-04-25T10:48:25;9.88;;;3.17;;
54197;SDS011;40105;52.366;17.000;2023-04-25T10:50:50;13.52;;;2.97;;
54197;SDS011;40105;52.366;17.000;2023-04-25T10:53:32;11.63;;;2.27;;
54197;SDS011;40105;52.366;17.000;2023-04-25T10:55:58;8.65;;;2.25;;
54197;SDS011;40105;52.366;17.000;2023-04-25T10:58:23;5.03;;;2.40;;
54197;SDS011;40105;52.366;17.000;2023-04-25T11:00:48;11.07;;;2.37;;
54197;SDS011;40105;52.366;17.000;2023-04-25T11:03:15;5.75;;;2.13;;
54197;SDS011;40105;52.366;17.000;2023-04-25T11:05:41;9.15;;;2.80;;
54197;SDS011;40105;52.366;17.000;2023-04-25T11:08:10;10.75;;;2.72;;
54197;SDS011;40105;52.366;17.000;2023-04-25T11:10:35;8.13;;;2.78;;
54197;SDS011;40105;52.366;17.000;2023-04-25T11:13:01;8.50;;;3.03;;
54197;SDS011;40105;52.366;17.000;2023-04-25T11:15:26;6.30;;;3.23;;
54197;SDS011;40105;52.366;17.000;2023-04-25T11:17:52;6.97;;;3.38;;
54197;SDS011;40105;52.366;17.000;2023-04-25T11:20:17;6.97;;;2.65;;
54197;SDS011;40105;52.366;17.000;2023-04-25T11:22:44;5.40;;;1.90;;
54197;SDS011;40105;52.366;17.000;2023-04-25T11:25:10;7.47;;;2.30;;
54197;SDS011;40105;52.366;17.000;2023-04-25T11:27:49;9.05;;;2.95;;
54197;SDS011;40105;52.366;17.000;2023-04-25T11:30:15;9.88;;;3.15;;
54197;SDS011;40105;52.366;17.000;2023-04-25T11:32:43;5.13;;;2.20;;
54197;SDS011;40105;52.366;17.000;2023-04-25T11:35:08;23.80;;;7.27;;
54197;SDS011;40105;52.366;17.000;2023-04-25T11:37:34;7.50;;;1.92;;
54197;SDS011;40105;52.366;17.000;2023-04-25T11:39:59;9.07;;;3.50;;
54197;SDS011;40105;52.366;17.000;2023-04-25T11:42:24;9.27;;;3.00;;
54197;SDS011;40105;52.366;17.000;2023-04-25T11:44:49;7.37;;;2.53;;
54197;SDS011;40105;52.366;17.000;2023-04-25T11:47:15;4.43;;;2.00;;
54197;SDS011;40105;52.366;17.000;2023-04-25T11:49:40;5.97;;;2.40;;
54197;SDS011;40105;52.366;17.000;2023-04-25T11:52:06;5.53;;;2.13;;
54197;SDS011;40105;52.366;17.000;2023-04-25T11:54:32;17.80;;;2.38;;
54197;SDS011;40105;52.366;17.000;2023-04-25T11:56:59;7.05;;;1.95;;
54197;SDS011;40105;52.366;17.000;2023-04-25T11:59:26;9.18;;;1.90;;
54197;SDS011;40105;52.366;17.000;2023-04-25T12:01:52;6.43;;;2.50;;
54197;SDS011;40105;52.366;17.000;2023-04-25T12:04:22;6.57;;;1.80;;
54197;SDS011;40105;52.366;17.000;2023-04-25T12:06:51;7.88;;;2.33;;
54197;SDS011;40105;52.366;17.000;2023-04-25T12:09:18;5.75;;;2.85;;
54197;SDS011;40105;52.366;17.000;2023-04-25T12:14:09;10.50;;;2.40;;
54197;SDS011;40105;52.366;17.000;2023-04-25T12:16:40;6.07;;;2.38;;
54197;SDS011;40105;52.366;17.000;2023-04-25T12:19:06;7.05;;;2.05;;
54197;SDS011;40105;52.366;17.000;2023-04-25T12:21:32;5.88;;;1.92;;
54197;SDS011;40105;52.366;17.000;2023-04-25T12:24:07;13.90;;;2.50;;
54197;SDS011;40105;52.366;17.000;2023-04-25T12:29:33;5.07;;;1.90;;
54197;SDS011;40105;52.366;17.000;2023-04-25T12:31:58;8.25;;;2.03;;
54197;SDS011;40105;52.366;17.000;2023-04-25T12:34:24;9.45;;;1.80;;
54197;SDS011;40105;52.366;17.000;2023-04-25T12:36:50;11.15;;;2.20;;
54197;SDS011;40105;52.366;17.000;2023-04-25T12:39:16;5.93;;;2.38;;
54197;SDS011;40105;52.366;17.000;2023-04-25T12:41:42;5.07;;;2.15;;
54197;SDS011;40105;52.366;17.000;2023-04-25T12:44:07;7.43;;;2.58;;
54197;SDS011;40105;52.366;17.000;2023-04-25T12:46:35;4.27;;;1.80;;
54197;SDS011;40105;52.366;17.000;2023-04-25T12:49:00;11.75;;;2.28;;
54197;SDS011;40105;52.366;17.000;2023-04-25T12:51:26;5.95;;;2.47;;
54197;SDS011;40105;52.366;17.000;2023-04-25T12:53:52;13.70;;;2.00;;
54197;SDS011;40105;52.366;17.000;2023-04-25T12:56:18;6.82;;;2.38;;
54197;SDS011;40105;52.366;17.000;2023-04-25T12:58:43;5.57;;;2.75;;
54197;SDS011;40105;52.366;17.000;2023-04-25T13:01:09;8.02;;;2.45;;
54197;SDS011;40105;52.366;17.000;2023-04-25T13:03:34;4.27;;;2.00;;
54197;SDS011;40105;52.366;17.000;2023-04-25T13:05:59;9.60;;;2.72;;
54197;SDS011;40105;52.366;17.000;2023-04-25T13:08:24;5.97;;;2.50;;
54197;SDS011;40105;52.366;17.000;2023-04-25T13:10:50;7.07;;;2.50;;
54197;SDS011;40105;52.366;17.000;2023-04-25T13:13:15;5.45;;;2.40;;
54197;SDS011;40105;52.366;17.000;2023-04-25T13:15:41;6.85;;;2.50;;
54197;SDS011;40105;52.366;17.000;2023-04-25T13:18:06;3.70;;;1.90;;
54197;SDS011;40105;52.366;17.000;2023-04-25T13:20:31;5.00;;;2.27;;
54197;SDS011;40105;52.366;17.000;2023-04-25T13:22:57;9.27;;;3.03;;
54197;SDS011;40105;52.366;17.000;2023-04-25T13:25:22;3.93;;;2.13;;
54197;SDS011;40105;52.366;17.000;2023-04-25T13:27:47;2.87;;;1.43;;
54197;SDS011;40105;52.366;17.000;2023-04-25T13:30:12;28.23;;;2.17;;
54197;SDS011;40105;52.366;17.000;2023-04-25T13:32:38;2.53;;;1.03;;
54197;SDS011;40105;52.366;17.000;2023-04-25T13:35:04;3.70;;;1.63;;
54197;SDS011;40105;52.366;17.000;2023-04-25T13:37:29;5.05;;;2.55;;
54197;SDS011;40105;52.366;17.000;2023-04-25T13:39:55;3.85;;;2.00;;
54197;SDS011;40105;52.366;17.000;2023-04-25T13:42:21;3.58;;;1.85;;
54197;SDS011;40105;52.366;17.000;2023-04-25T13:44:46;10.33;;;1.70;;
54197;SDS011;40105;52.366;17.000;2023-04-25T13:47:11;7.82;;;1.30;;
54197;SDS011;40105;52.366;17.000;2023-04-25T13:49:36;6.05;;;2.25;;
54197;SDS011;40105;52.366;17.000;2023-04-25T13:52:02;6.10;;;1.70;;
54197;SDS011;40105;52.366;17.000;2023-04-25T13:54:27;4.30;;;1.47;;
54197;SDS011;40105;52.366;17.000;2023-04-25T13:56:52;3.57;;;1.83;;
54197;SDS011;40105;52.366;17.000;2023-04-25T13:59:20;3.05;;;2.10;;
54197;SDS011;40105;52.366;17.000;2023-04-25T14:01:45;6.38;;;2.47;;
54197;SDS011;40105;52.366;17.000;2023-04-25T14:04:10;9.47;;;2.23;;
54197;SDS011;40105;52.366;17.000;2023-04-25T14:06:35;6.60;;;1.90;;
54197;SDS011;40105;52.366;17.000;2023-04-25T14:09:01;4.85;;;2.08;;
54197;SDS011;40105;52.366;17.000;2023-04-25T14:11:26;4.43;;;1.90;;
54197;SDS011;40105;52.366;17.000;2023-04-25T14:13:52;5.28;;;2.15;;
54197;SDS011;40105;52.366;17.000;2023-04-25T14:16:17;6.57;;;2.80;;
54197;SDS011;40105;52.366;17.000;2023-04-25T14:18:42;8.47;;;2.80;;
54197;SDS011;40105;52.366;17.000;2023-04-25T14:21:07;6.23;;;2.33;;
54197;SDS011;40105;52.366;17.000;2023-04-25T14:23:32;6.43;;;2.35;;
54197;SDS011;40105;52.366;17.000;2023-04-25T14:25:58;11.63;;;3.43;;
54197;SDS011;40105;52.366;17.000;2023-04-25T14:28:23;6.70;;;2.77;;
54197;SDS011;40105;52.366;17.000;2023-04-25T14:30:48;13.50;;;3.77;;
54197;SDS011;40105;52.366;17.000;2023-04-25T14:33:13;7.45;;;3.20;;